Time;durP1;ratioP1;P1;durP2;ratioP2;P2;SDS_P1;SDS_P2;PMS_P1;PMS_P2;Temp;Humidity;BMP_temperature;BMP_pressure;BME280_temperature;BME280_humidity;BME280_pressure;Samples;Min_cycle;Max_cycle;Signal;HPM_P1;HPM_P2
2023/09/09 00:02:04;;;;;;;11.10;10.10;;;;;;;;;;5075085;28;20443;-71
2023/09/09 00:04:31;;;;;;;13.47;12.07;;;;;;;;;;5076855;28;20998;-71
2023/09/09 00:07:02;;;;;;;11.90;10.90;;;;;;;;;;5076757;28;20530;-71
2023/09/09 00:09:29;;;;;;;13.10;11.93;;;;;;;;;;5076584;28;20494;-71
2023/09/09 00:11:58;;;;;;;11.43;10.47;;;;;;;;;;5076489;28;20446;-71
2023/09/09 00:14:25;;;;;;;12.10;11.10;;;;;;;;;;5076747;28;20825;-71
2023/09/09 00:16:52;;;;;;;11.70;10.80;;;;;;;;;;5076599;28;20467;-71
2023/09/09 00:19:21;;;;;;;12.13;11.13;;;;;;;;;;5076536;28;20496;-71
2023/09/09 00:21:49;;;;;;;11.40;10.40;;;;;;;;;;5076291;28;20528;-71
2023/09/09 00:24:16;;;;;;;10.60;9.60;;;;;;;;;;5076309;28;20446;-71
2023/09/09 00:26:43;;;;;;;12.33;11.30;;;;;;;;;;5076477;28;20456;-71
2023/09/09 00:29:11;;;;;;;10.47;9.63;;;;;;;;;;5076131;28;20481;-71
2023/09/09 00:31:38;;;;;;;11.87;10.90;;;;;;;;;;5075957;28;20922;-71
2023/09/09 00:34:05;;;;;;;14.07;12.67;;;;;;;;;;5076130;28;20435;-71
2023/09/09 00:36:32;;;;;;;12.53;11.40;;;;;;;;;;5076072;28;20534;-71
2023/09/09 00:39:02;;;;;;;12.20;11.13;;;;;;;;;;5075897;28;20448;-71
2023/09/09 00:41:29;;;;;;;11.87;10.87;;;;;;;;;;5076265;28;20489;-71
2023/09/09 00:43:56;;;;;;;13.70;11.80;;;;;;;;;;5076028;28;20482;-71
2023/09/09 00:46:26;;;;;;;12.90;11.60;;;;;;;;;;5075950;28;20481;-71
2023/09/09 00:48:53;;;;;;;11.83;10.80;;;;;;;;;;5075911;28;21027;-71
2023/09/09 00:51:20;;;;;;;11.03;10.13;;;;;;;;;;5075725;28;20851;-71
2023/09/09 00:53:47;;;;;;;11.83;10.80;;;;;;;;;;5076147;28;20445;-71
2023/09/09 00:56:14;;;;;;;12.60;11.30;;;;;;;;;;5075913;28;20482;-70
2023/09/09 00:58:41;;;;;;;12.60;11.37;;;;;;;;;;5075835;28;20449;-71
2023/09/09 01:01:08;;;;;;;11.97;10.90;;;;;;;;;;5075565;28;20562;-71
2023/09/09 01:03:36;;;;;;;12.27;11.17;;;;;;;;;;5075571;28;20977;-71
2023/09/09 01:06:04;;;;;;;12.60;11.40;;;;;;;;;;5075446;28;20447;-71
2023/09/09 01:08:31;;;;;;;11.93;10.77;;;;;;;;;;5075671;28;20538;-71
2023/09/09 01:10:59;;;;;;;11.87;10.77;;;;;;;;;;5075639;28;20854;-70
2023/09/09 01:13:26;;;;;;;13.70;12.50;;;;;;;;;;5074637;28;20855;-71
2023/09/09 01:15:54;;;;;;;12.03;11.03;;;;;;;;;;5075459;28;21014;-71
2023/09/09 01:18:21;;;;;;;11.43;10.53;;;;;;;;;;5075249;28;20443;-70
2023/09/09 01:20:52;;;;;;;11.90;10.80;;;;;;;;;;5075119;28;21001;-71
2023/09/09 01:23:20;;;;;;;12.47;11.27;;;;;;;;;;5075426;28;20446;-70
2023/09/09 01:25:47;;;;;;;12.83;11.63;;;;;;;;;;5075263;28;20439;-71
2023/09/09 01:28:14;;;;;;;12.77;11.73;;;;;;;;;;5075074;28;20645;-71
2023/09/09 01:30:42;;;;;;;12.30;11.20;;;;;;;;;;5075165;28;20539;-71
2023/09/09 01:33:09;;;;;;;12.80;11.70;;;;;;;;;;5074972;28;20455;-71
2023/09/09 01:35:36;;;;;;;13.07;11.97;;;;;;;;;;5075203;28;20553;-71
2023/09/09 01:38:03;;;;;;;12.60;11.50;;;;;;;;;;5075079;28;20445;-71
2023/09/09 01:40:31;;;;;;;12.67;11.40;;;;;;;;;;5074987;28;20563;-71
2023/09/09 01:42:58;;;;;;;12.70;11.60;;;;;;;;;;5074867;28;20869;-71
2023/09/09 01:45:25;;;;;;;11.57;10.60;;;;;;;;;;5074789;28;20814;-71
2023/09/09 01:47:52;;;;;;;12.70;11.57;;;;;;;;;;5074967;28;20859;-70
2023/09/09 01:50:19;;;;;;;12.03;10.93;;;;;;;;;;5074919;28;20809;-71
2023/09/09 01:52:46;;;;;;;13.10;11.90;;;;;;;;;;5075063;28;20768;-71
2023/09/09 01:55:13;;;;;;;13.20;12.07;;;;;;;;;;5074706;28;20547;-71
2023/09/09 01:57:41;;;;;;;13.57;12.17;;;;;;;;;;5074672;28;20477;-71
2023/09/09 02:00:09;;;;;;;12.33;11.33;;;;;;;;;;5074475;28;20448;-70
2023/09/09 02:02:36;;;;;;;12.37;11.07;;;;;;;;;;5074625;28;20479;-70
2023/09/09 02:05:03;;;;;;;12.37;11.27;;;;;;;;;;5074735;28;20538;-70
2023/09/09 02:07:30;;;;;;;14.40;11.43;;;;;;;;;;5074324;28;20946;-70
2023/09/09 02:09:57;;;;;;;12.13;11.00;;;;;;;;;;5074342;28;20535;-70
2023/09/09 02:12:24;;;;;;;11.93;10.73;;;;;;;;;;5074296;28;20535;-70
2023/09/09 02:14:52;;;;;;;11.50;10.50;;;;;;;;;;5074392;28;20534;-70
2023/09/09 02:17:19;;;;;;;12.43;11.30;;;;;;;;;;5074352;28;20466;-71
2023/09/09 02:19:46;;;;;;;11.43;10.47;;;;;;;;;;5074219;28;20462;-71
2023/09/09 02:22:13;;;;;;;12.53;11.43;;;;;;;;;;5074112;28;20486;-71
2023/09/09 02:24:40;;;;;;;11.33;10.33;;;;;;;;;;5074033;28;20530;-71
2023/09/09 02:27:07;;;;;;;12.90;11.63;;;;;;;;;;5073898;28;20443;-71
2023/09/09 02:29:34;;;;;;;12.80;11.57;;;;;;;;;;5073809;28;20471;-71
2023/09/09 02:32:02;;;;;;;12.57;11.37;;;;;;;;;;5074122;28;20447;-71
2023/09/09 02:34:29;;;;;;;12.13;11.03;;;;;;;;;;5073966;28;21061;-71
2023/09/09 02:37:13;;;;;;;12.10;11.00;;;;;;;;;;5073824;28;20454;-71
2023/09/09 02:39:41;;;;;;;12.13;11.07;;;;;;;;;;5073739;28;20939;-71
2023/09/09 02:42:08;;;;;;;12.60;11.50;;;;;;;;;;5073758;28;20868;-71
2023/09/09 02:44:35;;;;;;;11.90;10.70;;;;;;;;;;5073813;28;20811;-71
2023/09/09 02:47:04;;;;;;;11.60;10.60;;;;;;;;;;5073705;28;20459;-72
2023/09/09 02:49:30;;;;;;;12.37;11.27;;;;;;;;;;5073708;28;20490;-72
2023/09/09 02:51:57;;;;;;;14.00;12.70;;;;;;;;;;5073455;28;20447;-72
2023/09/09 02:54:24;;;;;;;13.20;12.10;;;;;;;;;;5073437;28;20530;-71
2023/09/09 02:56:51;;;;;;;12.93;11.73;;;;;;;;;;5073637;28;20874;-71
2023/09/09 02:59:18;;;;;;;12.07;11.07;;;;;;;;;;5073571;28;20538;-71
2023/09/09 03:01:45;;;;;;;12.67;11.67;;;;;;;;;;5073357;28;20574;-71
2023/09/09 03:04:14;;;;;;;12.53;11.53;;;;;;;;;;5073299;28;20443;-72
2023/09/09 03:06:42;;;;;;;13.30;11.97;;;;;;;;;;5073195;28;20444;-71
2023/09/09 03:09:09;;;;;;;12.70;11.50;;;;;;;;;;5073385;28;20447;-71
2023/09/09 03:11:36;;;;;;;13.57;11.80;;;;;;;;;;5073369;28;20458;-71
2023/09/09 03:14:03;;;;;;;12.33;11.20;;;;;;;;;;5073338;28;20886;-71
2023/09/09 03:16:30;;;;;;;11.90;10.90;;;;;;;;;;5073221;28;20443;-71
2023/09/09 03:18:57;;;;;;;12.43;11.33;;;;;;;;;;5073145;28;20450;-71
2023/09/09 03:21:26;;;;;;;13.00;11.83;;;;;;;;;;5072903;28;20475;-71
2023/09/09 03:23:53;;;;;;;12.10;11.20;;;;;;;;;;5073305;28;20539;-71
2023/09/09 03:26:22;;;;;;;12.27;11.10;;;;;;;;;;5072996;28;20447;-71
2023/09/09 03:28:49;;;;;;;12.40;11.23;;;;;;;;;;5072949;28;20826;-71
2023/09/09 03:31:16;;;;;;;12.90;11.80;;;;;;;;;;5072933;28;21064;-71
2023/09/09 03:33:43;;;;;;;13.57;12.40;;;;;;;;;;5072868;28;20450;-71
2023/09/09 03:36:10;;;;;;;12.03;11.03;;;;;;;;;;5072654;28;20776;-71
2023/09/09 03:38:39;;;;;;;14.00;12.70;;;;;;;;;;5073068;28;20887;-71
2023/09/09 03:41:06;;;;;;;11.43;10.50;;;;;;;;;;5072908;28;20443;-71
2023/09/09 03:43:33;;;;;;;11.83;10.70;;;;;;;;;;5072944;28;20454;-71
2023/09/09 03:46:00;;;;;;;12.30;11.30;;;;;;;;;;5072904;28;20526;-71
2023/09/09 03:48:27;;;;;;;13.00;11.80;;;;;;;;;;5072759;28;20890;-71
2023/09/09 03:50:58;;;;;;;12.17;11.07;;;;;;;;;;5072962;28;20811;-71
2023/09/09 03:53:24;;;;;;;13.37;12.03;;;;;;;;;;5072994;28;20534;-71
2023/09/09 03:55:53;;;;;;;12.17;10.97;;;;;;;;;;5072800;28;20443;-71
2023/09/09 03:58:20;;;;;;;14.30;12.60;;;;;;;;;;5072762;28;20883;-71
2023/09/09 04:00:47;;;;;;;12.57;11.37;;;;;;;;;;5072644;28;20847;-71
2023/09/09 04:03:14;;;;;;;13.13;11.20;;;;;;;;;;5072770;28;20514;-71
2023/09/09 04:05:41;;;;;;;12.20;11.20;;;;;;;;;;5072855;28;20443;-71
2023/09/09 04:08:09;;;;;;;13.87;12.57;;;;;;;;;;5072755;28;20538;-71
2023/09/09 04:10:36;;;;;;;13.47;12.03;;;;;;;;;;5072561;28;20937;-71
2023/09/09 04:13:04;;;;;;;15.23;13.73;;;;;;;;;;5072577;28;20451;-71
2023/09/09 04:15:32;;;;;;;12.20;11.20;;;;;;;;;;5072510;28;20478;-71
2023/09/09 04:17:58;;;;;;;14.17;12.67;;;;;;;;;;5072759;28;20455;-71
2023/09/09 04:20:25;;;;;;;13.23;11.97;;;;;;;;;;5072720;28;20558;-71
2023/09/09 04:22:52;;;;;;;13.13;11.83;;;;;;;;;;5072501;28;20483;-71
2023/09/09 04:25:19;;;;;;;13.03;11.97;;;;;;;;;;5072541;28;20859;-71
2023/09/09 04:27:46;;;;;;;14.07;11.97;;;;;;;;;;5072333;28;20562;-71
2023/09/09 04:30:15;;;;;;;12.37;11.27;;;;;;;;;;5072465;28;20444;-71
2023/09/09 04:32:42;;;;;;;12.60;11.50;;;;;;;;;;5072543;28;20522;-71
2023/09/09 04:35:09;;;;;;;12.60;11.40;;;;;;;;;;5072465;28;20439;-71
2023/09/09 04:37:36;;;;;;;13.90;12.70;;;;;;;;;;5072369;28;20466;-71
2023/09/09 04:40:05;;;;;;;14.53;12.33;;;;;;;;;;5072406;28;20517;-71
2023/09/09 04:42:32;;;;;;;12.80;11.73;;;;;;;;;;5072181;28;20483;-71
2023/09/09 04:44:59;;;;;;;12.37;11.27;;;;;;;;;;5072444;28;20443;-71
2023/09/09 04:47:28;;;;;;;12.23;11.10;;;;;;;;;;5072488;28;20540;-71
2023/09/09 04:49:56;;;;;;;13.00;11.80;;;;;;;;;;5075663;28;20540;-71
2023/09/09 04:52:23;;;;;;;14.10;12.70;;;;;;;;;;5075907;28;20450;-71
2023/09/09 04:54:50;;;;;;;13.97;11.80;;;;;;;;;;5075791;28;20807;-71
2023/09/09 04:57:17;;;;;;;13.00;11.83;;;;;;;;;;5076016;28;20989;-71
2023/09/09 04:59:44;;;;;;;12.40;11.30;;;;;;;;;;5075716;28;20530;-71
2023/09/09 05:02:12;;;;;;;14.70;13.40;;;;;;;;;;5075624;28;20474;-71
2023/09/09 05:04:41;;;;;;;14.20;12.80;;;;;;;;;;5075749;28;20938;-71
2023/09/09 05:07:08;;;;;;;12.50;11.30;;;;;;;;;;5075630;28;20546;-71
2023/09/09 05:09:35;;;;;;;15.00;12.90;;;;;;;;;;5075523;28;20535;-71
2023/09/09 05:12:02;;;;;;;13.57;12.27;;;;;;;;;;5075723;28;20547;-71
2023/09/09 05:14:29;;;;;;;14.90;13.33;;;;;;;;;;5075605;28;20884;-71
2023/09/09 05:16:55;;;;;;;15.13;13.67;;;;;;;;;;5075505;28;20522;-71
2023/09/09 05:19:23;;;;;;;15.00;13.50;;;;;;;;;;5075480;28;20536;-71
2023/09/09 05:21:51;;;;;;;12.57;11.47;;;;;;;;;;5075369;28;20850;-71
2023/09/09 05:24:18;;;;;;;15.30;13.90;;;;;;;;;;5075212;28;20951;-71
2023/09/09 05:26:45;;;;;;;14.40;12.97;;;;;;;;;;5075454;28;20443;-71
2023/09/09 05:29:12;;;;;;;14.53;13.30;;;;;;;;;;5075067;28;20476;-71
2023/09/09 05:31:38;;;;;;;13.60;12.40;;;;;;;;;;5075074;28;21029;-71
2023/09/09 05:34:06;;;;;;;14.60;13.10;;;;;;;;;;5075167;28;20535;-71
2023/09/09 05:36:32;;;;;;;13.63;12.23;;;;;;;;;;5075066;28;20509;-71
2023/09/09 05:39:01;;;;;;;15.70;14.27;;;;;;;;;;5075224;28;20448;-71
2023/09/09 05:41:29;;;;;;;14.87;13.40;;;;;;;;;;5075016;28;21013;-71
2023/09/09 05:43:56;;;;;;;13.60;12.40;;;;;;;;;;5075051;28;20819;-71
2023/09/09 05:46:23;;;;;;;15.37;13.87;;;;;;;;;;5074874;28;20450;-71
2023/09/09 05:48:50;;;;;;;15.47;13.53;;;;;;;;;;5074872;28;20538;-71
2023/09/09 05:51:17;;;;;;;13.57;12.37;;;;;;;;;;5074772;28;20447;-71
2023/09/09 05:53:44;;;;;;;14.40;13.00;;;;;;;;;;5074840;28;20447;-71
2023/09/09 05:56:12;;;;;;;14.90;12.80;;;;;;;;;;5074679;28;20443;-71
2023/09/09 05:58:40;;;;;;;13.00;11.80;;;;;;;;;;5074405;28;20451;-71
2023/09/09 06:01:07;;;;;;;13.17;11.97;;;;;;;;;;5074565;28;20455;-71
2023/09/09 06:03:35;;;;;;;14.13;12.80;;;;;;;;;;5074447;28;20482;-71
2023/09/09 06:06:02;;;;;;;13.73;12.50;;;;;;;;;;5074319;28;20463;-71
2023/09/09 06:08:29;;;;;;;14.03;12.83;;;;;;;;;;5074601;28;20471;-71
2023/09/09 06:10:56;;;;;;;13.60;12.30;;;;;;;;;;5074362;28;20447;-71
2023/09/09 06:13:24;;;;;;;14.77;12.90;;;;;;;;;;5074405;28;20443;-71
2023/09/09 06:15:51;;;;;;;12.97;11.80;;;;;;;;;;5074362;28;20462;-71
2023/09/09 06:18:18;;;;;;;15.60;13.93;;;;;;;;;;5074215;28;20454;-71
2023/09/09 06:20:48;;;;;;;13.27;12.07;;;;;;;;;;5074354;28;20446;-71
2023/09/09 06:23:15;;;;;;;14.47;13.03;;;;;;;;;;5074139;28;20831;-71
2023/09/09 06:25:42;;;;;;;13.13;11.83;;;;;;;;;;5074183;28;20538;-71
2023/09/09 06:28:09;;;;;;;14.83;11.90;;;;;;;;;;5073828;28;20981;-72
2023/09/09 06:30:42;;;;;;;12.97;11.77;;;;;;;;;;5073979;28;20527;-71
2023/09/09 06:33:09;;;;;;;13.80;12.53;;;;;;;;;;5073951;28;20534;-71
2023/09/09 06:35:36;;;;;;;12.77;11.53;;;;;;;;;;5074049;28;20443;-71
2023/09/09 06:38:04;;;;;;;12.27;11.00;;;;;;;;;;5073988;28;20493;-71
2023/09/09 06:40:32;;;;;;;12.90;10.90;;;;;;;;;;5073715;28;20443;-71
2023/09/09 06:42:59;;;;;;;12.73;11.40;;;;;;;;;;5073692;28;20479;-71
2023/09/09 06:45:26;;;;;;;11.67;10.67;;;;;;;;;;5073635;28;20479;-71
2023/09/09 06:47:54;;;;;;;12.17;11.07;;;;;;;;;;5073814;28;20530;-71
2023/09/09 06:50:21;;;;;;;14.63;10.90;;;;;;;;;;5073529;28;20517;-71
2023/09/09 06:52:48;;;;;;;11.17;9.73;;;;;;;;;;5073656;28;20448;-71
2023/09/09 06:55:15;;;;;;;10.93;10.00;;;;;;;;;;5073603;28;20536;-71
2023/09/09 06:57:42;;;;;;;9.17;8.47;;;;;;;;;;5073479;28;20450;-71
2023/09/09 07:00:10;;;;;;;10.10;9.20;;;;;;;;;;5073395;28;20522;-71
2023/09/09 07:02:37;;;;;;;10.33;9.53;;;;;;;;;;5073178;28;20573;-71
2023/09/09 07:05:05;;;;;;;9.37;8.47;;;;;;;;;;5073517;28;20479;-71
2023/09/09 07:07:32;;;;;;;10.17;9.37;;;;;;;;;;5073390;28;20538;-72
2023/09/09 07:09:59;;;;;;;9.43;8.73;;;;;;;;;;5073264;28;20443;-72
2023/09/09 07:12:26;;;;;;;9.50;8.70;;;;;;;;;;5072424;28;20937;-72
2023/09/09 07:14:53;;;;;;;10.27;8.93;;;;;;;;;;5073382;28;20449;-71
2023/09/09 07:17:20;;;;;;;10.07;9.07;;;;;;;;;;5073292;28;20444;-71
2023/09/09 07:19:47;;;;;;;9.37;8.57;;;;;;;;;;5073252;28;20475;-72
2023/09/09 07:22:15;;;;;;;9.00;8.30;;;;;;;;;;5072985;28;20935;-72
2023/09/09 07:24:42;;;;;;;8.73;7.93;;;;;;;;;;5073072;28;20534;-72
2023/09/09 07:27:09;;;;;;;9.13;8.40;;;;;;;;;;5072928;28;20522;-72
2023/09/09 07:29:36;;;;;;;9.53;8.50;;;;;;;;;;5072917;28;21084;-72
2023/09/09 07:32:04;;;;;;;8.43;7.73;;;;;;;;;;5073197;28;20436;-72
2023/09/09 07:34:31;;;;;;;9.70;8.70;;;;;;;;;;5073078;28;20534;-72
2023/09/09 07:36:58;;;;;;;9.07;7.90;;;;;;;;;;5073088;28;20864;-72
2023/09/09 07:39:27;;;;;;;9.53;8.73;;;;;;;;;;5072913;28;20440;-71
2023/09/09 07:41:54;;;;;;;9.27;8.37;;;;;;;;;;5073133;28;20446;-72
2023/09/09 07:44:21;;;;;;;9.13;8.23;;;;;;;;;;5072974;28;20532;-73
2023/09/09 07:46:48;;;;;;;9.23;8.43;;;;;;;;;;5072948;28;20536;-72
2023/09/09 07:49:15;;;;;;;8.17;7.27;;;;;;;;;;5072976;28;20948;-71
2023/09/09 07:51:42;;;;;;;8.27;7.63;;;;;;;;;;5072814;28;20450;-72
2023/09/09 07:54:08;;;;;;;7.30;6.70;;;;;;;;;;5072716;28;20539;-72
2023/09/09 07:56:37;;;;;;;8.50;7.40;;;;;;;;;;5072999;28;20470;-72
2023/09/09 07:59:04;;;;;;;9.03;8.13;;;;;;;;;;5072859;28;20538;-72
2023/09/09 08:01:31;;;;;;;9.53;8.67;;;;;;;;;;5072896;28;20444;-72
2023/09/09 08:03:58;;;;;;;10.07;7.80;;;;;;;;;;5072686;28;20572;-72
2023/09/09 08:06:25;;;;;;;9.33;8.53;;;;;;;;;;5072826;28;20984;-72
2023/09/09 08:08:52;;;;;;;9.17;8.43;;;;;;;;;;5072548;28;20446;-72
2023/09/09 08:11:19;;;;;;;8.40;7.70;;;;;;;;;;5072770;28;20439;-72
2023/09/09 08:13:47;;;;;;;8.60;7.50;;;;;;;;;;5072745;28;20489;-71
2023/09/09 08:16:14;;;;;;;9.10;8.20;;;;;;;;;;5072567;28;20530;-72
2023/09/09 08:18:41;;;;;;;7.80;7.20;;;;;;;;;;5072572;28;20448;-72
2023/09/09 08:21:10;;;;;;;8.90;8.00;;;;;;;;;;5072542;28;20439;-71
2023/09/09 08:23:37;;;;;;;8.10;6.77;;;;;;;;;;5075420;28;21285;-72
2023/09/09 08:26:04;;;;;;;8.53;7.73;;;;;;;;;;5076321;28;20539;-71
2023/09/09 08:28:31;;;;;;;7.60;7.00;;;;;;;;;;5076209;28;20570;-72
2023/09/09 08:31:00;;;;;;;7.53;6.93;;;;;;;;;;5076409;28;20949;-72
2023/09/09 08:33:27;;;;;;;7.67;7.07;;;;;;;;;;5076324;28;20894;-72
2023/09/09 08:35:58;;;;;;;7.87;7.17;;;;;;;;;;5076134;28;20483;-72
2023/09/09 08:38:25;;;;;;;14.10;7.43;;;;;;;;;;5075997;28;20962;-72
2023/09/09 08:40:56;;;;;;;7.33;6.63;;;;;;;;;;5076294;28;20443;-72
2023/09/09 08:43:30;;;;;;;8.37;7.67;;;;;;;;;;5076099;28;20471;-72
2023/09/09 08:46:00;;;;;;;7.63;7.13;;;;;;;;;;5076019;28;20497;-72
2023/09/09 08:48:29;;;;;;;8.17;7.40;;;;;;;;;;5075757;28;20450;-72
2023/09/09 08:50:59;;;;;;;6.83;6.30;;;;;;;;;;5076021;28;20454;-72
2023/09/09 08:53:27;;;;;;;8.30;7.50;;;;;;;;;;5076046;28;20534;-72
2023/09/09 08:55:55;;;;;;;7.40;6.80;;;;;;;;;;5075936;28;20449;-72
2023/09/09 08:58:22;;;;;;;8.37;6.93;;;;;;;;;;5075835;28;20448;-72
2023/09/09 09:00:49;;;;;;;7.90;7.20;;;;;;;;;;5075621;28;20534;-72
2023/09/09 09:03:16;;;;;;;6.80;6.30;;;;;;;;;;5075620;28;21190;-72
2023/09/09 09:05:45;;;;;;;7.13;6.60;;;;;;;;;;5075848;28;20806;-72
2023/09/09 09:08:13;;;;;;;8.10;7.33;;;;;;;;;;5075704;28;20439;-72
2023/09/09 09:10:40;;;;;;;7.77;7.07;;;;;;;;;;5075547;28;20479;-72
2023/09/09 09:13:07;;;;;;;6.60;6.00;;;;;;;;;;5075487;28;20844;-72
2023/09/09 09:15:36;;;;;;;6.10;5.60;;;;;;;;;;5075382;28;20439;-72
2023/09/09 09:18:03;;;;;;;6.53;5.70;;;;;;;;;;5075536;28;20872;-72
2023/09/09 09:20:31;;;;;;;6.80;6.30;;;;;;;;;;5075427;28;20534;-72
2023/09/09 09:22:59;;;;;;;6.93;6.37;;;;;;;;;;5075203;28;20974;-72
2023/09/09 09:25:27;;;;;;;6.17;5.63;;;;;;;;;;5075293;28;20536;-72
2023/09/09 09:27:57;;;;;;;6.03;5.50;;;;;;;;;;5075069;28;20475;-72
2023/09/09 09:30:29;;;;;;;6.10;5.60;;;;;;;;;;5075010;28;20501;-72
2023/09/09 09:32:56;;;;;;;5.53;5.13;;;;;;;;;;5075279;28;20447;-72
2023/09/09 09:35:24;;;;;;;6.03;5.30;;;;;;;;;;5074479;28;20536;-72
2023/09/09 09:37:52;;;;;;;5.93;5.43;;;;;;;;;;5075121;28;20443;-72
2023/09/09 09:40:21;;;;;;;5.07;4.67;;;;;;;;;;5074980;28;20443;-72
2023/09/09 09:42:48;;;;;;;6.80;5.10;;;;;;;;;;5074748;28;20450;-72
2023/09/09 09:45:15;;;;;;;5.87;5.27;;;;;;;;;;5075055;28;20447;-72
2023/09/09 09:47:43;;;;;;;6.37;5.13;;;;;;;;;;5075072;28;20802;-72
2023/09/09 09:50:17;;;;;;;5.20;4.73;;;;;;;;;;5074831;28;20447;-72
2023/09/09 09:52:48;;;;;;;5.90;4.60;;;;;;;;;;5074742;28;20451;-72
2023/09/09 09:55:17;;;;;;;7.03;5.10;;;;;;;;;;5074958;28;20447;-72
2023/09/09 09:57:46;;;;;;;5.90;5.40;;;;;;;;;;5074773;28;20443;-72
2023/09/09 10:00:15;;;;;;;4.97;4.67;;;;;;;;;;5074778;28;20534;-72
2023/09/09 10:02:42;;;;;;;5.20;4.80;;;;;;;;;;5074451;28;20950;-72
2023/09/09 10:05:12;;;;;;;4.63;4.23;;;;;;;;;;5074426;28;20483;-72
2023/09/09 10:07:43;;;;;;;4.70;4.33;;;;;;;;;;5074426;28;20867;-72
2023/09/09 10:10:11;;;;;;;5.13;4.77;;;;;;;;;;5074580;28;20436;-72
2023/09/09 10:12:42;;;;;;;4.43;4.00;;;;;;;;;;5074355;28;20526;-72
2023/09/09 10:15:10;;;;;;;4.17;3.97;;;;;;;;;;5074154;28;20538;-72
2023/09/09 10:17:38;;;;;;;7.37;4.83;;;;;;;;;;5074184;28;20445;-72
2023/09/09 10:20:05;;;;;;;4.23;3.93;;;;;;;;;;5074125;28;20532;-72
2023/09/09 10:22:33;;;;;;;4.23;3.93;;;;;;;;;;5073845;28;20446;-72
2023/09/09 10:25:03;;;;;;;4.50;4.10;;;;;;;;;;5074025;28;20590;-72
2023/09/09 10:27:30;;;;;;;4.50;4.20;;;;;;;;;;5074147;28;20450;-72
2023/09/09 10:29:58;;;;;;;3.90;3.67;;;;;;;;;;5073998;28;21010;-72
2023/09/09 10:32:27;;;;;;;4.97;4.47;;;;;;;;;;5073862;28;20882;-73
2023/09/09 10:34:55;;;;;;;4.80;4.50;;;;;;;;;;5073835;28;20857;-72
2023/09/09 10:37:22;;;;;;;4.77;4.37;;;;;;;;;;5073860;28;20537;-72
2023/09/09 10:39:50;;;;;;;7.03;3.60;;;;;;;;;;5073808;28;20535;-72
2023/09/09 10:42:17;;;;;;;4.63;4.20;;;;;;;;;;5073660;28;20530;-72
2023/09/09 10:44:48;;;;;;;4.30;4.00;;;;;;;;;;5073637;28;21005;-73
2023/09/09 10:47:16;;;;;;;4.43;4.03;;;;;;;;;;5072779;28;20938;-72
2023/09/09 10:49:44;;;;;;;4.90;4.50;;;;;;;;;;5073601;28;20489;-72
2023/09/09 10:52:26;;;;;;;4.33;4.03;;;;;;;;;;5073709;28;20479;-72
2023/09/09 10:55:10;;;;;;;4.73;4.33;;;;;;;;;;5073430;28;20523;-72
2023/09/09 10:57:37;;;;;;;4.73;4.30;;;;;;;;;;5073392;28;20449;-72
2023/09/09 11:00:06;;;;;;;8.53;4.50;;;;;;;;;;5073722;28;20486;-72
2023/09/09 11:02:44;;;;;;;4.00;3.70;;;;;;;;;;5073557;28;20448;-72
2023/09/09 11:05:13;;;;;;;4.60;4.20;;;;;;;;;;5073381;28;20482;-72
2023/09/09 11:07:40;;;;;;;5.90;4.40;;;;;;;;;;5073401;28;20882;-72
2023/09/09 11:10:08;;;;;;;5.13;4.60;;;;;;;;;;5073200;28;20490;-72
2023/09/09 11:12:35;;;;;;;5.00;4.30;;;;;;;;;;5073344;28;20443;-72
2023/09/09 11:15:08;;;;;;;6.20;4.80;;;;;;;;;;5073289;28;20443;-73
2023/09/09 11:17:35;;;;;;;4.43;3.87;;;;;;;;;;5073323;28;20455;-72
2023/09/09 11:20:02;;;;;;;4.20;3.90;;;;;;;;;;5073208;28;20546;-72
2023/09/09 11:22:31;;;;;;;5.63;4.30;;;;;;;;;;5073075;28;20799;-72
2023/09/09 11:24:59;;;;;;;4.57;4.27;;;;;;;;;;5073119;28;20490;-73
2023/09/09 11:27:26;;;;;;;4.20;3.90;;;;;;;;;;5073070;28;20471;-72
2023/09/09 11:29:53;;;;;;;4.60;4.30;;;;;;;;;;5073289;28;20459;-73
2023/09/09 11:32:26;;;;;;;5.17;3.73;;;;;;;;;;5073091;28;20539;-73
2023/09/09 11:34:54;;;;;;;4.20;3.80;;;;;;;;;;5072971;28;20853;-72
2023/09/09 11:37:21;;;;;;;4.07;3.73;;;;;;;;;;5073142;28;20542;-73
2023/09/09 11:39:52;;;;;;;3.90;3.60;;;;;;;;;;5072747;28;20977;-72
2023/09/09 11:42:19;;;;;;;4.47;4.17;;;;;;;;;;5073090;28;20467;-72
2023/09/09 11:44:47;;;;;;;4.60;4.30;;;;;;;;;;5072723;28;21008;-73
2023/09/09 11:47:14;;;;;;;3.77;3.47;;;;;;;;;;5072832;28;20454;-73
2023/09/09 11:49:43;;;;;;;4.60;4.30;;;;;;;;;;5072773;28;20447;-73
2023/09/09 11:52:10;;;;;;;4.23;3.93;;;;;;;;;;5073035;28;20451;-73
2023/09/09 11:54:37;;;;;;;4.07;3.77;;;;;;;;;;5072916;28;20443;-73
2023/09/09 11:57:06;;;;;;;4.07;3.77;;;;;;;;;;5073553;28;20537;-72
2023/09/09 11:59:33;;;;;;;3.93;3.63;;;;;;;;;;5076911;28;20543;-73
2023/09/09 12:02:00;;;;;;;3.80;3.60;;;;;;;;;;5076793;28;20530;-73
2023/09/09 12:04:27;;;;;;;4.90;4.50;;;;;;;;;;5076686;28;20478;-72
2023/09/09 12:06:54;;;;;;;5.40;3.80;;;;;;;;;;5076846;28;20526;-73
2023/09/09 12:09:22;;;;;;;3.43;3.20;;;;;;;;;;5076828;28;20454;-72
2023/09/09 12:11:49;;;;;;;4.73;3.40;;;;;;;;;;5076735;28;20444;-73
2023/09/09 12:14:17;;;;;;;3.60;3.40;;;;;;;;;;5076637;28;20443;-73
2023/09/09 12:16:46;;;;;;;4.17;3.87;;;;;;;;;;5076476;28;20866;-73
2023/09/09 12:19:13;;;;;;;4.83;3.97;;;;;;;;;;5076690;28;20447;-73
2023/09/09 12:21:43;;;;;;;3.53;3.23;;;;;;;;;;5076437;28;20454;-73
2023/09/09 12:24:10;;;;;;;4.50;4.10;;;;;;;;;;5076283;28;20499;-73
2023/09/09 12:26:37;;;;;;;3.93;3.73;;;;;;;;;;5076434;28;20451;-73
2023/09/09 12:29:06;;;;;;;3.93;3.63;;;;;;;;;;5076090;28;21047;-73
2023/09/09 12:31:34;;;;;;;4.20;3.90;;;;;;;;;;5076001;28;20479;-73
2023/09/09 12:34:01;;;;;;;4.10;3.80;;;;;;;;;;5076351;28;20542;-73
2023/09/09 12:36:33;;;;;;;4.03;3.70;;;;;;;;;;5076255;28;20531;-73
2023/09/09 12:39:00;;;;;;;4.03;3.50;;;;;;;;;;5076092;28;20938;-73
2023/09/09 12:41:27;;;;;;;4.10;3.80;;;;;;;;;;5076114;28;20529;-73
2023/09/09 12:43:54;;;;;;;3.60;3.40;;;;;;;;;;5075827;28;20540;-73
2023/09/09 12:46:26;;;;;;;4.30;3.87;;;;;;;;;;5076113;28;20534;-73
2023/09/09 12:48:55;;;;;;;4.43;4.13;;;;;;;;;;5076078;28;20780;-73
2023/09/09 12:51:24;;;;;;;4.40;4.10;;;;;;;;;;5075807;28;20447;-73
2023/09/09 12:53:52;;;;;;;3.80;3.50;;;;;;;;;;5075976;28;20474;-73
2023/09/09 12:56:19;;;;;;;3.83;3.53;;;;;;;;;;5075762;28;20443;-73
2023/09/09 12:58:46;;;;;;;3.63;3.43;;;;;;;;;;5075986;28;20447;-73
2023/09/09 13:01:13;;;;;;;5.17;3.80;;;;;;;;;;5075666;28;20965;-73
2023/09/09 13:03:40;;;;;;;3.90;3.57;;;;;;;;;;5075768;28;20962;-73
2023/09/09 13:06:09;;;;;;;4.97;3.67;;;;;;;;;;5075692;28;20443;-73
2023/09/09 13:08:36;;;;;;;4.23;3.93;;;;;;;;;;5074603;28;20530;-73
2023/09/09 13:11:04;;;;;;;3.87;3.40;;;;;;;;;;5075481;28;20458;-73
2023/09/09 13:13:31;;;;;;;3.60;3.40;;;;;;;;;;5075697;28;20450;-74
2023/09/09 13:15:58;;;;;;;4.20;3.90;;;;;;;;;;5075637;28;20443;-73
2023/09/09 13:18:25;;;;;;;3.60;3.40;;;;;;;;;;5075494;28;20439;-74
2023/09/09 13:20:52;;;;;;;5.47;3.40;;;;;;;;;;5075415;28;20534;-74
2023/09/09 13:23:20;;;;;;;3.77;3.43;;;;;;;;;;5075254;28;20445;-73
2023/09/09 13:25:47;;;;;;;3.70;3.40;;;;;;;;;;5075773;28;20558;-74
2023/09/09 13:28:14;;;;;;;3.90;3.60;;;;;;;;;;5075225;28;20906;-73
2023/09/09 13:30:41;;;;;;;4.10;3.70;;;;;;;;;;5075347;28;20889;-73
2023/09/09 13:33:08;;;;;;;3.70;3.50;;;;;;;;;;5075168;28;20444;-74
2023/09/09 13:35:35;;;;;;;4.57;3.70;;;;;;;;;;5075101;28;20981;-73
2023/09/09 13:38:04;;;;;;;3.40;3.20;;;;;;;;;;5075055;28;20447;-73
2023/09/09 13:40:32;;;;;;;3.60;3.40;;;;;;;;;;5075164;28;20443;-73
2023/09/09 13:42:59;;;;;;;3.70;3.40;;;;;;;;;;5075098;28;20450;-73
2023/09/09 13:45:26;;;;;;;4.30;4.00;;;;;;;;;;5074666;28;21090;-74
2023/09/09 13:47:53;;;;;;;4.30;4.00;;;;;;;;;;5074762;28;20530;-74
2023/09/09 13:50:20;;;;;;;3.93;3.63;;;;;;;;;;5074762;28;20469;-74
2023/09/09 13:52:47;;;;;;;5.30;3.60;;;;;;;;;;5074746;28;21010;-74
2023/09/09 13:55:15;;;;;;;3.70;3.40;;;;;;;;;;5074869;28;20443;-73
2023/09/09 13:57:43;;;;;;;3.83;3.53;;;;;;;;;;5074798;28;20453;-74
2023/09/09 14:00:10;;;;;;;4.60;4.20;;;;;;;;;;5074696;28;20452;-74
2023/09/09 14:02:37;;;;;;;4.07;3.77;;;;;;;;;;5074607;28;20474;-73
2023/09/09 14:05:04;;;;;;;4.27;3.87;;;;;;;;;;5074337;28;20485;-73
2023/09/09 14:07:31;;;;;;;5.37;3.50;;;;;;;;;;5074665;28;20450;-73
2023/09/09 14:09:58;;;;;;;4.33;4.03;;;;;;;;;;5074721;28;20534;-74
2023/09/09 14:12:25;;;;;;;3.73;3.53;;;;;;;;;;5074520;28;20505;-74
2023/09/09 14:14:53;;;;;;;4.00;3.70;;;;;;;;;;5074327;28;20538;-74
2023/09/09 14:17:20;;;;;;;3.60;3.30;;;;;;;;;;5074284;28;21019;-74
2023/09/09 14:19:47;;;;;;;5.40;3.87;;;;;;;;;;5073927;28;20964;-74
2023/09/09 14:22:14;;;;;;;4.00;3.70;;;;;;;;;;5074274;28;20475;-74
2023/09/09 14:24:41;;;;;;;6.17;4.03;;;;;;;;;;5074189;28;20510;-74
2023/09/09 14:27:09;;;;;;;3.93;3.63;;;;;;;;;;5074249;28;20450;-73
2023/09/09 14:29:36;;;;;;;4.00;3.80;;;;;;;;;;5073926;28;20471;-74
2023/09/09 14:32:05;;;;;;;3.70;3.40;;;;;;;;;;5073952;28;20703;-73
2023/09/09 14:34:32;;;;;;;4.03;3.73;;;;;;;;;;5074076;28;20542;-73